Time;durP1;ratioP1;P1;durP2;ratioP2;P2;SDS_P1;SDS_P2;PMS_P1;PMS_P2;Temp;Humidity;BMP_temperature;BMP_pressure;BME280_temperature;BME280_humidity;BME280_pressure;Samples;Min_cycle;Max_cycle;Signal;HPM_P1;HPM_P2
2020/12/17 00:00:58;;;;;;;11.60;7.25;;;10.20;99.90;;;;;;4161993;28;20392;-82
2020/12/17 00:02:59;;;;;;;11.88;7.07;;;10.10;99.90;;;;;;4160725;28;20052;-82
2020/12/17 00:05:00;;;;;;;11.70;7.35;;;10.10;99.90;;;;;;4144204;28;20030;-82
2020/12/17 00:07:01;;;;;;;11.07;7.20;;;10.10;99.90;;;;;;4160227;28;20033;-82
2020/12/17 00:09:03;;;;;;;11.40;7.40;;;10.10;99.90;;;;;;4141712;28;20038;-82
2020/12/17 00:11:04;;;;;;;13.35;7.35;;;10.20;99.90;;;;;;4159771;28;20033;-83
2020/12/17 00:13:04;;;;;;;11.23;6.47;;;10.10;99.90;;;;;;4160222;28;20060;-82
2020/12/17 00:15:07;;;;;;;11.20;6.97;;;10.10;99.90;;;;;;4160385;28;20577;-82
2020/12/17 00:17:08;;;;;;;10.23;6.47;;;10.20;99.90;;;;;;4160068;28;20413;-82
2020/12/17 00:19:12;;;;;;;11.23;6.47;;;10.10;99.90;;;;;;4146678;28;20030;-82
2020/12/17 00:21:20;;;;;;;14.43;7.15;;;10.20;99.90;;;;;;4160391;28;20021;-82
2020/12/17 00:23:20;;;;;;;10.65;6.65;;;10.20;99.90;;;;;;4142397;28;20038;-82
2020/12/17 00:25:21;;;;;;;11.60;6.75;;;10.20;99.90;;;;;;4159829;28;20060;-82
2020/12/17 00:27:22;;;;;;;11.20;6.45;;;10.20;99.90;;;;;;4164512;28;20040;-83
2020/12/17 00:29:22;;;;;;;11.40;6.57;;;10.20;99.90;;;;;;4143977;28;20050;-83
2020/12/17 00:31:23;;;;;;;12.82;7.32;;;10.20;99.90;;;;;;4159699;28;20049;-83
2020/12/17 00:33:24;;;;;;;10.35;6.63;;;10.20;99.90;;;;;;4158230;28;20025;-82
2020/12/17 00:35:24;;;;;;;10.70;6.32;;;10.20;99.90;;;;;;4159641;28;20034;-82
2020/12/17 00:37:38;;;;;;;9.50;5.75;;;10.30;99.90;;;;;;4151423;28;20040;-82
2020/12/17 00:39:39;;;;;;;9.85;6.35;;;10.30;99.90;;;;;;4147062;28;20056;-82
2020/12/17 00:41:39;;;;;;;10.10;6.30;;;10.30;99.90;;;;;;4173796;28;20474;-82
2020/12/17 00:43:41;;;;;;;8.95;6.05;;;10.30;99.90;;;;;;4162825;28;20025;-82
2020/12/17 00:45:41;;;;;;;9.95;5.90;;;10.30;99.90;;;;;;4165832;28;20065;-82
2020/12/17 00:47:43;;;;;;;9.23;5.68;;;10.30;99.90;;;;;;4153418;28;20045;-82
2020/12/17 00:49:44;;;;;;;10.98;5.68;;;10.30;99.90;;;;;;4146522;28;20245;-82
2020/12/17 00:51:45;;;;;;;11.52;5.47;;;10.30;99.90;;;;;;4181358;28;20044;-82
2020/12/17 00:53:48;;;;;;;10.40;5.85;;;10.30;99.90;;;;;;4175751;28;21618;-82
2020/12/17 00:55:49;;;;;;;7.50;5.07;;;10.30;99.90;;;;;;4163300;28;20538;-82
2020/12/17 00:57:50;;;;;;;7.50;5.47;;;10.30;99.90;;;;;;4168104;28;20116;-82
2020/12/17 00:59:50;;;;;;;7.10;5.22;;;10.30;99.90;;;;;;4146477;28;20085;-82
2020/12/17 01:01:51;;;;;;;7.78;4.90;;;10.30;99.90;;;;;;4146702;28;20034;-82
2020/12/17 01:03:52;;;;;;;6.28;4.68;;;10.30;99.90;;;;;;4162338;28;20030;-82
2020/12/17 01:05:53;;;;;;;7.97;4.70;;;10.30;99.90;;;;;;4166253;28;20523;-82
2020/12/17 01:07:53;;;;;;;11.43;5.00;;;10.30;99.90;;;;;;4165924;28;20079;-82
2020/12/17 01:09:54;;;;;;;9.07;4.43;;;10.30;99.90;;;;;;4162838;28;20030;-82
2020/12/17 01:11:55;;;;;;;7.45;4.43;;;10.30;99.90;;;;;;4146097;28;20062;-82
2020/12/17 01:13:57;;;;;;;10.02;4.88;;;10.40;99.90;;;;;;4162993;28;20025;-82
2020/12/17 01:16:13;;;;;;;7.47;4.45;;;10.40;99.90;;;;;;4166383;28;20492;-82
2020/12/17 01:18:13;;;;;;;9.05;4.80;;;10.40;99.90;;;;;;4163402;28;20095;-82
2020/12/17 01:20:14;;;;;;;8.20;4.82;;;10.40;99.90;;;;;;4162267;28;20034;-82
2020/12/17 01:22:15;;;;;;;6.93;4.80;;;10.40;99.90;;;;;;4145703;28;20049;-82
2020/12/17 01:24:21;;;;;;;6.60;4.80;;;10.40;99.90;;;;;;4163069;28;20160;-82
2020/12/17 01:26:22;;;;;;;8.90;4.93;;;10.40;99.90;;;;;;4148443;28;20045;-82
2020/12/17 01:28:22;;;;;;;9.20;4.72;;;10.40;99.90;;;;;;4141001;28;20034;-82
2020/12/17 01:30:23;;;;;;;11.70;5.15;;;10.40;99.90;;;;;;4179058;28;20033;-82
2020/12/17 01:32:24;;;;;;;7.50;4.60;;;10.40;99.90;;;;;;4170738;28;20022;-82
2020/12/17 01:34:25;;;;;;;10.80;4.95;;;10.40;99.90;;;;;;4146152;28;20117;-82
2020/12/17 01:36:26;;;;;;;6.10;4.53;;;10.40;99.90;;;;;;4164309;28;20026;-82
2020/12/17 01:38:27;;;;;;;8.32;4.22;;;10.40;99.90;;;;;;4146122;28;20092;-82
2020/12/17 01:40:27;;;;;;;6.30;4.53;;;10.40;99.90;;;;;;4146479;28;20026;-82
2020/12/17 01:42:28;;;;;;;10.13;5.15;;;10.50;99.90;;;;;;4142848;28;20080;-82
2020/12/17 01:44:28;;;;;;;11.05;4.85;;;10.40;99.90;;;;;;4171403;28;20538;-82
2020/12/17 01:46:29;;;;;;;7.57;4.82;;;10.40;99.90;;;;;;4146013;28;20130;-82
2020/12/17 01:48:32;;;;;;;7.35;4.65;;;10.40;99.90;;;;;;4161864;28;20061;-82
2020/12/17 01:50:33;;;;;;;7.63;4.97;;;10.50;99.90;;;;;;4162307;28;20033;-82
2020/12/17 01:52:34;;;;;;;9.65;5.40;;;10.40;99.90;;;;;;4162281;28;20034;-82
2020/12/17 01:54:34;;;;;;;11.35;5.00;;;10.40;99.90;;;;;;4146083;28;20037;-82
2020/12/17 01:56:54;;;;;;;12.05;5.65;;;10.50;99.90;;;;;;4162031;28;20034;-82
2020/12/17 01:59:11;;;;;;;10.25;5.53;;;10.50;99.90;;;;;;4163036;28;20383;-82
2020/12/17 02:01:13;;;;;;;7.95;4.60;;;10.50;99.90;;;;;;4145017;28;20294;-82
2020/12/17 02:03:13;;;;;;;9.43;5.28;;;10.50;99.90;;;;;;4179004;28;20377;-82
2020/12/17 02:05:14;;;;;;;11.95;5.50;;;10.50;99.90;;;;;;4163704;28;20109;-82
2020/12/17 02:07:15;;;;;;;10.98;5.55;;;10.50;99.90;;;;;;4161950;28;20112;-82
2020/12/17 02:09:18;;;;;;;9.75;5.15;;;10.50;99.90;;;;;;4162063;28;20029;-82
2020/12/17 02:11:19;;;;;;;7.75;4.90;;;10.50;99.90;;;;;;4161918;28;20059;-82
2020/12/17 02:13:33;;;;;;;8.47;5.00;;;10.50;99.90;;;;;;4145432;28;20030;-82
2020/12/17 02:15:34;;;;;;;8.02;5.13;;;10.50;99.90;;;;;;4159135;28;20292;-82
2020/12/17 02:17:34;;;;;;;10.27;5.20;;;10.50;99.90;;;;;;4166602;28;20029;-83
2020/12/17 02:19:35;;;;;;;6.97;4.85;;;10.50;99.90;;;;;;4145186;28;20038;-82
2020/12/17 02:21:36;;;;;;;8.10;5.10;;;10.50;99.90;;;;;;4161925;28;20113;-82
2020/12/17 02:23:40;;;;;;;7.05;4.82;;;10.50;99.90;;;;;;4145345;28;20057;-82
2020/12/17 02:25:41;;;;;;;9.75;4.75;;;10.50;99.90;;;;;;4145659;28;20045;-82
2020/12/17 02:27:42;;;;;;;7.88;4.72;;;10.50;99.90;;;;;;4164259;28;20034;-82
2020/12/17 02:29:43;;;;;;;9.35;5.00;;;10.50;99.90;;;;;;4167601;28;20457;-82
2020/12/17 02:31:44;;;;;;;10.00;5.10;;;10.50;99.90;;;;;;4160863;28;20022;-82
2020/12/17 02:33:44;;;;;;;8.65;4.78;;;10.50;99.90;;;;;;4161397;28;20032;-82
2020/12/17 02:35:45;;;;;;;7.80;5.05;;;10.50;99.90;;;;;;4161082;28;20112;-82
2020/12/17 02:37:46;;;;;;;8.55;4.82;;;10.50;99.90;;;;;;4160967;28;20026;-82
2020/12/17 02:39:46;;;;;;;7.55;4.72;;;10.50;99.90;;;;;;4145160;28;20038;-82
2020/12/17 02:41:47;;;;;;;10.52;5.40;;;10.50;99.90;;;;;;4160284;28;20033;-82
2020/12/17 02:43:48;;;;;;;9.48;5.43;;;10.50;99.90;;;;;;4160972;28;20034;-82
2020/12/17 02:45:49;;;;;;;9.93;5.43;;;10.50;99.90;;;;;;4167904;28;20575;-82
2020/12/17 02:47:50;;;;;;;8.60;4.22;;;10.50;99.90;;;;;;4160183;28;20026;-82
2020/12/17 02:49:51;;;;;;;8.32;4.72;;;10.50;99.90;;;;;;4143938;28;20069;-83
2020/12/17 02:51:52;;;;;;;6.50;4.88;;;10.50;99.90;;;;;;4144451;28;20026;-82
2020/12/17 02:53:53;;;;;;;10.90;5.25;;;10.50;99.90;;;;;;4157630;28;20385;-82
2020/12/17 02:55:54;;;;;;;6.63;4.30;;;10.50;99.90;;;;;;4163654;28;20072;-82
2020/12/17 02:57:54;;;;;;;9.10;4.90;;;10.50;99.90;;;;;;4157629;28;20042;-82
2020/12/17 02:59:55;;;;;;;7.80;4.70;;;10.50;99.90;;;;;;4158640;28;20435;-82
2020/12/17 03:01:55;;;;;;;8.40;5.07;;;10.50;99.90;;;;;;4142362;28;20619;-82
2020/12/17 03:03:56;;;;;;;7.55;4.32;;;10.50;99.90;;;;;;4183273;28;20518;-82
2020/12/17 03:05:57;;;;;;;7.20;4.47;;;10.50;99.90;;;;;;4160663;28;20033;-82
2020/12/17 03:07:57;;;;;;;6.82;4.43;;;10.50;99.90;;;;;;4160063;28;20025;-82
2020/12/17 03:10:01;;;;;;;8.05;5.13;;;10.60;99.90;;;;;;4143100;28;20057;-82
2020/12/17 03:12:12;;;;;;;8.10;4.18;;;10.50;99.90;;;;;;4159064;28;20026;-83
2020/12/17 03:14:12;;;;;;;8.45;4.50;;;10.50;99.90;;;;;;4170149;28;20029;-82
2020/12/17 03:16:13;;;;;;;6.88;4.32;;;10.60;99.90;;;;;;4160285;28;20022;-82
2020/12/17 03:18:14;;;;;;;9.48;4.72;;;10.50;99.90;;;;;;4162237;28;20100;-82
2020/12/17 03:20:15;;;;;;;10.25;5.05;;;10.50;99.90;;;;;;4179893;28;20029;-82
2020/12/17 03:22:16;;;;;;;9.82;4.68;;;10.50;99.90;;;;;;4160697;28;20029;-83
2020/12/17 03:24:17;;;;;;;7.15;4.32;;;10.50;99.90;;;;;;4160004;28;20039;-83
2020/12/17 03:26:17;;;;;;;9.98;4.88;;;10.50;99.90;;;;;;4155865;28;20041;-83
2020/12/17 03:28:18;;;;;;;8.80;5.05;;;10.50;99.90;;;;;;4142340;28;20472;-82
2020/12/17 03:30:19;;;;;;;8.90;5.25;;;10.50;99.90;;;;;;4159800;28;20108;-82
2020/12/17 03:32:19;;;;;;;11.13;5.65;;;10.50;99.90;;;;;;4142180;28;20389;-82
2020/12/17 03:34:20;;;;;;;8.13;5.25;;;10.50;99.90;;;;;;4150005;28;20095;-82
2020/12/17 03:36:21;;;;;;;9.65;5.70;;;10.50;99.90;;;;;;4150381;28;20119;-83
2020/12/17 03:38:21;;;;;;;8.52;5.38;;;10.50;99.90;;;;;;4157297;28;20038;-82
2020/12/17 03:40:27;;;;;;;9.88;5.10;;;10.50;99.90;;;;;;4158254;28;20689;-82
2020/12/17 03:42:28;;;;;;;8.98;5.18;;;10.50;99.90;;;;;;4141570;28;20053;-82
2020/12/17 03:44:29;;;;;;;8.70;5.20;;;10.50;99.90;;;;;;4166338;28;20545;-82
2020/12/17 03:46:29;;;;;;;8.68;5.20;;;10.50;99.90;;;;;;4143717;28;20045;-82
2020/12/17 03:48:30;;;;;;;11.43;5.70;;;10.50;99.90;;;;;;4143279;28;20485;-82
2020/12/17 03:50:37;;;;;;;7.05;4.95;;;10.50;99.90;;;;;;4159938;28;20041;-82
2020/12/17 03:52:38;;;;;;;8.45;5.20;;;10.50;99.90;;;;;;4159098;28;20063;-82
2020/12/17 03:54:39;;;;;;;7.97;5.10;;;10.50;99.90;;;;;;4169637;28;20133;-82
2020/12/17 03:56:39;;;;;;;7.13;4.80;;;10.50;99.90;;;;;;4159688;28;20072;-83
2020/12/17 03:58:40;;;;;;;7.50;4.72;;;10.50;99.90;;;;;;4160245;28;20108;-83
2020/12/17 04:00:41;;;;;;;7.50;4.90;;;10.50;99.90;;;;;;4165220;28;20052;-82
2020/12/17 04:02:41;;;;;;;10.73;4.97;;;10.50;99.90;;;;;;4143615;28;20032;-82
2020/12/17 04:04:42;;;;;;;9.15;5.15;;;10.50;99.90;;;;;;4161293;28;20030;-82
2020/12/17 04:06:42;;;;;;;8.20;4.95;;;10.50;99.90;;;;;;4144824;28;20076;-82
2020/12/17 04:08:43;;;;;;;7.35;4.93;;;10.50;99.90;;;;;;4140554;28;20513;-82
2020/12/17 04:10:44;;;;;;;7.28;5.15;;;10.50;99.90;;;;;;4151418;28;20029;-82
2020/12/17 04:12:44;;;;;;;8.73;5.15;;;10.50;99.90;;;;;;4158087;28;20112;-82
2020/12/17 04:14:45;;;;;;;8.82;5.25;;;10.50;99.90;;;;;;4163613;28;20029;-82
2020/12/17 04:16:46;;;;;;;9.88;5.75;;;10.60;99.90;;;;;;4147235;28;20037;-82
2020/12/17 04:18:46;;;;;;;8.90;5.22;;;10.60;99.90;;;;;;4146836;28;20560;-82
2020/12/17 04:20:47;;;;;;;10.38;5.28;;;10.50;99.90;;;;;;4163562;28;20026;-82
2020/12/17 04:22:47;;;;;;;6.97;4.65;;;10.60;99.90;;;;;;4161475;28;20026;-82
2020/12/17 04:24:48;;;;;;;7.93;4.60;;;10.50;99.90;;;;;;4156871;28;20121;-82
2020/12/17 04:26:52;;;;;;;6.63;4.55;;;10.60;99.90;;;;;;4177607;28;20416;-82
2020/12/17 04:28:54;;;;;;;9.55;5.38;;;10.50;99.90;;;;;;4145207;28;20116;-82
2020/12/17 04:30:55;;;;;;;7.90;5.15;;;10.50;99.90;;;;;;4159948;28;20292;-82
2020/12/17 04:32:55;;;;;;;9.02;5.45;;;10.50;99.90;;;;;;4157404;28;20451;-82
2020/12/17 04:34:56;;;;;;;7.63;4.75;;;10.50;99.90;;;;;;4161413;28;20029;-82
2020/12/17 04:36:57;;;;;;;7.30;4.45;;;10.60;99.90;;;;;;4144405;28;20224;-82
2020/12/17 04:38:58;;;;;;;8.40;4.70;;;10.60;99.90;;;;;;4161394;28;20038;-82
2020/12/17 04:41:04;;;;;;;8.75;4.45;;;10.60;99.90;;;;;;4160610;28;20051;-82
2020/12/17 04:43:05;;;;;;;11.05;4.57;;;10.50;99.90;;;;;;4144799;28;20054;-82
2020/12/17 04:45:05;;;;;;;9.70;4.97;;;10.60;99.90;;;;;;4160441;28;20405;-83
2020/12/17 04:47:09;;;;;;;9.27;5.07;;;10.50;99.90;;;;;;4145013;28;20038;-82
2020/12/17 04:49:13;;;;;;;10.20;5.22;;;10.60;99.90;;;;;;4146418;28;20038;-82
2020/12/17 04:51:14;;;;;;;8.20;4.60;;;10.60;99.90;;;;;;4158985;28;20053;-82
2020/12/17 04:53:15;;;;;;;10.35;4.57;;;10.60;99.90;;;;;;4165636;28;20044;-82
2020/12/17 04:55:16;;;;;;;6.95;4.47;;;10.60;99.90;;;;;;4145513;28;20034;-82
2020/12/17 04:57:16;;;;;;;8.95;4.93;;;10.60;99.90;;;;;;4155691;28;20022;-82
2020/12/17 04:59:22;;;;;;;6.45;4.30;;;10.60;99.90;;;;;;4162917;28;20120;-83
2020/12/17 05:01:22;;;;;;;9.10;4.35;;;10.60;99.90;;;;;;4137122;28;20116;-82
2020/12/17 05:03:23;;;;;;;6.50;4.30;;;10.70;99.90;;;;;;4144470;28;20402;-83
2020/12/17 05:05:24;;;;;;;6.75;4.20;;;10.60;99.90;;;;;;4160938;28;20041;-82
2020/12/17 05:07:25;;;;;;;7.82;4.35;;;10.70;99.90;;;;;;4142951;28;20401;-82
2020/12/17 05:09:26;;;;;;;6.32;4.22;;;10.70;99.90;;;;;;4160445;28;20116;-82
2020/12/17 05:11:26;;;;;;;9.60;4.40;;;10.70;99.90;;;;;;4162122;28;20033;-82
2020/12/17 05:13:27;;;;;;;7.50;4.30;;;10.70;99.90;;;;;;4163889;28;20061;-82
2020/12/17 05:15:28;;;;;;;8.43;4.68;;;10.60;99.90;;;;;;4175497;28;20040;-82
2020/12/17 05:17:30;;;;;;;6.53;4.07;;;10.60;99.90;;;;;;4146098;28;20425;-82
2020/12/17 05:19:31;;;;;;;7.20;4.03;;;10.60;99.90;;;;;;4162840;28;20033;-82
2020/12/17 05:21:38;;;;;;;6.68;4.45;;;10.60;99.90;;;;;;4144463;28;20040;-82
2020/12/17 05:23:40;;;;;;;9.55;4.10;;;10.70;99.90;;;;;;4144884;28;20045;-82
2020/12/17 05:25:40;;;;;;;6.75;4.20;;;10.70;99.90;;;;;;4161556;28;20034;-82
2020/12/17 05:27:42;;;;;;;10.90;4.45;;;10.60;99.90;;;;;;4152691;28;20041;-82
2020/12/17 05:29:43;;;;;;;6.55;4.55;;;10.60;99.90;;;;;;4145594;28;20061;-82
2020/12/17 05:31:45;;;;;;;8.27;4.65;;;10.60;99.90;;;;;;4155137;28;20056;-82
2020/12/17 05:33:46;;;;;;;7.77;4.83;;;10.60;99.90;;;;;;4161141;28;20918;-82
2020/12/17 05:35:49;;;;;;;10.60;5.13;;;10.60;99.90;;;;;;4161705;28;20033;-82
2020/12/17 05:37:49;;;;;;;7.20;4.38;;;10.60;99.90;;;;;;4141933;28;20041;-82
2020/12/17 05:39:50;;;;;;;10.95;5.53;;;10.60;99.90;;;;;;4142996;28;20083;-82
2020/12/17 05:41:53;;;;;;;7.55;4.47;;;10.60;99.90;;;;;;4160873;28;20429;-82
2020/12/17 05:43:54;;;;;;;7.90;4.63;;;10.60;99.90;;;;;;4144700;28;20034;-82
2020/12/17 05:45:54;;;;;;;9.07;4.65;;;10.60;99.90;;;;;;4161554;28;20091;-82
2020/12/17 05:48:17;;;;;;;7.30;4.47;;;10.60;99.90;;;;;;4166848;28;20053;-82
2020/12/17 05:50:18;;;;;;;8.30;4.60;;;10.60;99.90;;;;;;4152716;28;20110;-84
2020/12/17 05:52:31;;;;;;;9.65;4.50;;;10.60;99.90;;;;;;4146016;28;20102;-83
2020/12/17 05:54:31;;;;;;;;;;;10.60;99.90;;;;;;4163653;28;20036;-83
2020/12/17 05:56:33;;;;;;;8.07;5.05;;;10.60;99.90;;;;;;4180848;28;19932;-83
2020/12/17 05:58:39;;;;;;;8.65;4.50;;;10.50;99.90;;;;;;4177590;28;20040;-83
2020/12/17 06:00:40;;;;;;;8.07;4.50;;;10.50;99.90;;;;;;4160440;28;20052;-83
2020/12/17 06:02:41;;;;;;;8.15;4.50;;;10.50;99.90;;;;;;4156081;28;20147;-83
2020/12/17 06:04:43;;;;;;;10.82;5.53;;;10.40;99.90;;;;;;4161103;28;20109;-83
2020/12/17 06:06:48;;;;;;;10.30;4.88;;;10.40;99.90;;;;;;4152708;28;20296;-83
2020/12/17 06:08:53;;;;;;;11.57;5.50;;;10.40;99.90;;;;;;4145796;28;20038;-83
2020/12/17 06:11:00;;;;;;;9.23;4.88;;;10.40;99.90;;;;;;4172179;28;20112;-82
2020/12/17 06:13:02;;;;;;;6.50;4.80;;;10.40;99.90;;;;;;4144916;28;20124;-82
2020/12/17 06:15:06;;;;;;;10.43;5.30;;;10.30;99.90;;;;;;4162252;28;20048;-82
2020/12/17 06:17:20;;;;;;;13.07;6.00;;;10.30;99.90;;;;;;4162264;28;20037;-82
2020/12/17 06:19:23;;;;;;;7.57;5.10;;;10.30;99.90;;;;;;4161642;28;20453;-82
2020/12/17 06:21:29;;;;;;;7.20;4.93;;;10.40;99.90;;;;;;4146037;28;20038;-83
2020/12/17 06:23:32;;;;;;;7.15;4.75;;;10.40;99.90;;;;;;4145726;28;20519;-81
2020/12/17 06:25:35;;;;;;;8.85;5.30;;;10.30;99.90;;;;;;4162926;28;20115;-82
2020/12/17 06:27:44;;;;;;;6.82;4.72;;;10.40;99.90;;;;;;4165757;28;20116;-85
2020/12/17 06:29:49;;;;;;;9.68;5.10;;;10.30;99.90;;;;;;4140657;28;20041;-82
2020/12/17 06:31:57;;;;;;;8.88;4.60;;;10.30;99.90;;;;;;4163037;28;20057;-83
2020/12/17 06:34:06;;;;;;;11.35;4.80;;;10.30;99.90;;;;;;4144410;28;20401;-83
2020/12/17 06:36:15;;;;;;;9.75;4.40;;;10.30;99.90;;;;;;4140436;28;20530;-83
2020/12/17 06:38:30;;;;;;;8.80;3.77;;;10.30;99.90;;;;;;4131482;28;20126;-82
2020/12/17 06:40:31;;;;;;;6.72;4.18;;;10.30;99.90;;;;;;4155391;28;20272;-81
2020/12/17 06:42:39;;;;;;;7.10;4.53;;;10.40;99.90;;;;;;4158211;28;20455;-81
2020/12/17 06:44:45;;;;;;;6.68;4.00;;;10.30;99.90;;;;;;4161310;28;20033;-81
2020/12/17 06:46:54;;;;;;;7.30;4.10;;;10.30;99.90;;;;;;4161909;28;20033;-82
2020/12/17 06:49:08;;;;;;;8.80;4.55;;;10.30;99.90;;;;;;4161464;28;20041;-85
2020/12/17 06:51:38;;;;;;;7.60;4.22;;;10.30;99.90;;;;;;4142933;28;20104;-83
2020/12/17 06:53:41;;;;;;;6.85;3.97;;;10.30;99.90;;;;;;4162220;28;20506;-82
2020/12/17 06:55:46;;;;;;;7.80;4.30;;;10.30;99.90;;;;;;4147199;28;20338;-83
2020/12/17 06:57:55;;;;;;;5.72;3.55;;;10.30;99.90;;;;;;4143589;28;20106;-84
2020/12/17 07:00:07;;;;;;;5.95;4.13;;;10.30;99.90;;;;;;4162027;28;20044;-82
2020/12/17 07:02:08;;;;;;;6.00;3.65;;;10.30;99.90;;;;;;4161846;28;20068;-83
2020/12/17 07:04:08;;;;;;;7.20;3.90;;;10.30;99.90;;;;;;4164214;28;20037;-83
2020/12/17 07:06:17;;;;;;;6.75;3.90;;;10.30;99.90;;;;;;4168055;28;20116;-84
2020/12/17 07:08:35;;;;;;;9.65;4.18;;;10.40;99.90;;;;;;4160249;28;20040;-82
2020/12/17 07:10:38;;;;;;;7.03;3.65;;;10.40;99.90;;;;;;4154423;28;20057;-82
2020/12/17 07:12:38;;;;;;;6.13;3.55;;;10.40;99.90;;;;;;4169719;28;20025;-83
2020/12/17 07:14:41;;;;;;;8.48;4.07;;;10.30;99.90;;;;;;4165161;28;20025;-84
2020/12/17 07:16:55;;;;;;;7.30;4.28;;;10.40;99.90;;;;;;4164298;28;20527;-83
2020/12/17 07:19:33;;;;;;;7.93;4.38;;;10.40;99.90;;;;;;4161760;28;20060;-83
2020/12/17 07:21:36;;;;;;;5.63;3.60;;;10.40;99.90;;;;;;4158710;28;20172;-82
2020/12/17 07:23:39;;;;;;;6.07;3.30;;;10.40;99.90;;;;;;4145301;28;20466;-81
2020/12/17 07:25:40;;;;;;;6.45;3.92;;;10.40;99.90;;;;;;4143116;28;20030;-82
2020/12/17 07:27:49;;;;;;;6.35;3.63;;;10.40;99.90;;;;;;4178313;28;20048;-81
2020/12/17 07:30:08;;;;;;;5.05;3.25;;;10.40;99.90;;;;;;4160450;28;20063;-81
2020/12/17 07:32:47;;;;;;;7.43;3.85;;;10.40;99.90;;;;;;4146313;28;20030;-81
2020/12/17 07:34:49;;;;;;;4.72;3.38;;;10.40;99.90;;;;;;4112609;28;20146;-82
2020/12/17 07:36:49;;;;;;;8.70;4.00;;;10.40;99.90;;;;;;4115610;28;20376;-82
2020/12/17 07:38:50;;;;;;;5.35;3.45;;;10.40;99.90;;;;;;4128199;28;20142;-82
2020/12/17 07:40:53;;;;;;;8.70;4.07;;;10.30;99.90;;;;;;4157573;28;20401;-82
2020/12/17 07:43:04;;;;;;;10.07;3.75;;;10.40;99.90;;;;;;4162415;28;20083;-81
2020/12/17 07:45:06;;;;;;;6.13;3.42;;;10.40;99.90;;;;;;4145143;28;20134;-81
2020/12/17 07:47:19;;;;;;;7.63;3.55;;;10.30;99.90;;;;;;4144848;28;20483;-81
2020/12/17 07:49:30;;;;;;;5.55;3.45;;;10.30;99.90;;;;;;4164364;28;20400;-81
2020/12/17 07:51:33;;;;;;;5.75;3.92;;;10.40;99.90;;;;;;4162487;28;20045;-81
2020/12/17 07:53:35;;;;;;;4.55;3.20;;;10.30;99.90;;;;;;4145294;28;20041;-81
2020/12/17 07:55:36;;;;;;;5.85;3.72;;;10.30;99.90;;;;;;4161621;28;20041;-81
2020/12/17 07:57:47;;;;;;;5.28;3.58;;;10.30;99.90;;;;;;4145466;28;20037;-81
2020/12/17 07:59:56;;;;;;;7.97;3.63;;;10.30;99.90;;;;;;4160219;28;20631;-81
2020/12/17 08:02:04;;;;;;;5.60;3.30;;;10.30;99.90;;;;;;4161802;28;20037;-81
2020/12/17 08:04:06;;;;;;;5.75;3.15;;;10.30;99.90;;;;;;4157722;28;20041;-81
2020/12/17 08:06:08;;;;;;;4.82;3.10;;;10.30;99.90;;;;;;4162534;28;20489;-81
2020/12/17 08:08:12;;;;;;;;;;;10.30;99.90;;;;;;4161848;28;20038;-79
2020/12/17 08:10:15;;;;;;;4.95;3.10;;;10.30;99.90;;;;;;4144644;28;20405;-79
2020/12/17 08:12:17;;;;;;;4.05;3.15;;;10.30;99.90;;;;;;4175480;28;20029;-79
2020/12/17 08:14:25;;;;;;;3.92;2.78;;;10.30;99.90;;;;;;4158499;28;20091;-79
2020/12/17 08:16:26;;;;;;;4.13;2.97;;;10.30;99.90;;;;;;4144634;28;20113;-79
2020/12/17 08:18:31;;;;;;;9.43;3.30;;;10.30;99.90;;;;;;4161032;28;20033;-79
2020/12/17 08:20:32;;;;;;;6.70;2.90;;;10.30;99.90;;;;;;4161736;28;20049;-79
2020/12/17 08:22:34;;;;;;;4.82;2.72;;;10.30;99.90;;;;;;4162377;28;20034;-79
2020/12/17 08:24:36;;;;;;;4.63;2.90;;;10.30;99.90;;;;;;4162528;28;20508;-79
2020/12/17 08:26:37;;;;;;;3.47;2.63;;;10.30;99.90;;;;;;4150357;28;20114;-79
2020/12/17 08:28:41;;;;;;;5.10;3.30;;;10.30;99.90;;;;;;4147587;28;20736;-79
2020/12/17 08:30:48;;;;;;;4.10;2.47;;;10.30;99.90;;;;;;4160329;28;20033;-81
2020/12/17 08:32:53;;;;;;;4.95;3.00;;;10.30;99.90;;;;;;4162811;28;20739;-81
2020/12/17 08:34:55;;;;;;;5.07;2.80;;;10.30;99.90;;;;;;4143709;28;20038;-81
2020/12/17 08:36:56;;;;;;;4.00;2.83;;;10.30;99.90;;;;;;4144360;28;20022;-80
2020/12/17 08:38:59;;;;;;;3.08;2.15;;;10.30;99.90;;;;;;4157820;28;20129;-79
2020/12/17 08:41:11;;;;;;;3.85;2.40;;;10.30;99.90;;;;;;4153359;28;20030;-79
2020/12/17 08:43:15;;;;;;;2.50;2.03;;;10.30;99.90;;;;;;4160776;28;20026;-79
2020/12/17 08:45:18;;;;;;;2.90;2.00;;;10.30;99.90;;;;;;4163809;28;20051;-79
2020/12/17 08:47:20;;;;;;;3.13;2.15;;;10.30;99.90;;;;;;4154264;28;20499;-79
2020/12/17 08:49:23;;;;;;;3.88;2.20;;;10.30;99.90;;;;;;4157954;28;20049;-79
2020/12/17 08:51:24;;;;;;;4.03;2.53;;;10.30;99.90;;;;;;4145383;28;20045;-79
2020/12/17 08:53:27;;;;;;;3.50;2.17;;;10.30;99.90;;;;;;4144283;28;20370;-79
2020/12/17 08:55:29;;;;;;;7.05;3.00;;;10.30;99.90;;;;;;4158351;28;20073;-79
2020/12/17 08:57:29;;;;;;;4.50;2.67;;;10.30;99.90;;;;;;4162859;28;20051;-79
2020/12/17 08:59:30;;;;;;;3.25;2.13;;;10.40;99.90;;;;;;4169183;28;20107;-79
2020/12/17 09:01:43;;;;;;;4.63;2.75;;;10.40;99.90;;;;;;4164843;28;20079;-79
2020/12/17 09:03:47;;;;;;;4.43;2.45;;;10.40;99.90;;;;;;4161390;28;20045;-79
2020/12/17 09:06:06;;;;;;;3.35;2.50;;;10.40;99.90;;;;;;4166709;28;20638;-81
2020/12/17 09:08:07;;;;;;;4.20;2.67;;;10.40;99.90;;;;;;4164856;28;20627;-79
2020/12/17 09:10:20;;;;;;;3.60;2.28;;;10.40;99.90;;;;;;4164594;28;20049;-79
2020/12/17 09:12:30;;;;;;;4.65;2.58;;;10.40;99.90;;;;;;4161049;28;20033;-79
2020/12/17 09:14:32;;;;;;;3.65;1.98;;;10.40;99.90;;;;;;4158599;28;20058;-79
2020/12/17 09:16:35;;;;;;;4.75;2.38;;;10.40;99.90;;;;;;4162784;28;20440;-79
2020/12/17 09:18:35;;;;;;;3.30;2.20;;;10.40;99.90;;;;;;4162761;28;20034;-79
2020/12/17 09:20:37;;;;;;;4.07;2.60;;;10.40;99.90;;;;;;4163928;28;20018;-79
2020/12/17 09:22:45;;;;;;;2.43;2.10;;;10.40;99.90;;;;;;4161693;28;20037;-79
2020/12/17 09:25:01;;;;;;;3.67;2.28;;;10.40;99.90;;;;;;4164181;28;20037;-79
2020/12/17 09:27:16;;;;;;;5.13;2.50;;;10.40;99.90;;;;;;4162693;28;20440;-79
2020/12/17 09:29:17;;;;;;;4.38;2.53;;;10.40;99.90;;;;;;4164269;28;20515;-79
2020/12/17 09:31:32;;;;;;;3.20;2.22;;;10.50;99.90;;;;;;4159044;28;20068;-78
2020/12/17 09:33:32;;;;;;;5.05;2.22;;;10.40;99.90;;;;;;4161207;28;20053;-79
2020/12/17 09:35:41;;;;;;;3.42;2.13;;;10.40;99.90;;;;;;4163378;28;20025;-78
2020/12/17 09:38:09;;;;;;;3.60;2.15;;;10.40;99.90;;;;;;4165488;28;20131;-79
2020/12/17 09:40:11;;;;;;;4.75;2.30;;;10.50;99.90;;;;;;4160172;28;20040;-78
2020/12/17 09:42:18;;;;;;;2.88;1.98;;;10.50;99.90;;;;;;4153367;28;20032;-79
2020/12/17 09:44:33;;;;;;;3.33;2.40;;;10.50;99.90;;;;;;4161244;28;20108;-79
2020/12/17 09:46:41;;;;;;;3.83;2.00;;;10.40;99.90;;;;;;4146015;28;20038;-79
2020/12/17 09:48:42;;;;;;;5.97;2.60;;;10.50;99.90;;;;;;4145023;28;20041;-79
2020/12/17 09:51:12;;;;;;;5.50;2.40;;;10.50;99.90;;;;;;4163979;28;20029;-79
2020/12/17 09:53:20;;;;;;;5.65;2.50;;;10.40;99.90;;;;;;4164322;28;20484;-79
2020/12/17 09:55:21;;;;;;;6.15;2.70;;;10.40;99.90;;;;;;4161567;28;20122;-79
2020/12/17 09:57:33;;;;;;;6.63;2.95;;;10.40;99.90;;;;;;4165709;28;20045;-79
2020/12/17 09:59:36;;;;;;;4.10;2.40;;;10.40;99.90;;;;;;4164174;28;20476;-79
2020/12/17 10:01:38;;;;;;;4.35;2.35;;;10.50;99.90;;;;;;4141551;28;20049;-79
2020/12/17 10:03:40;;;;;;;4.15;2.22;;;10.50;99.90;;;;;;4161541;28;20037;-79
2020/12/17 10:05:42;;;;;;;3.88;1.98;;;10.40;99.90;;;;;;4147065;28;20524;-79
2020/12/17 10:07:46;;;;;;;;;;;10.50;99.90;;;;;;4166769;28;20029;-79
2020/12/17 10:09:47;;;;;;;4.00;2.25;;;10.40;99.90;;;;;;4164861;28;19925;-79
2020/12/17 10:11:50;;;;;;;3.60;2.00;;;10.40;99.90;;;;;;4162606;28;20373;-79
2020/12/17 10:13:51;;;;;;;3.85;2.17;;;10.40;99.90;;;;;;4161234;28;20117;-78
2020/12/17 10:15:54;;;;;;;5.97;2.28;;;10.40;99.90;;;;;;4160617;28;20060;-79
2020/12/17 10:17:56;;;;;;;3.70;1.60;;;10.40;99.90;;;;;;4163120;28;20032;-78
2020/12/17 10:19:59;;;;;;;4.32;2.15;;;10.40;99.90;;;;;;4161246;28;20121;-78
2020/12/17 10:22:00;;;;;;;2.85;1.55;;;10.40;99.90;;;;;;4159538;28;20104;-79
2020/12/17 10:24:06;;;;;;;2.97;1.90;;;10.40;99.90;;;;;;4161825;28;20029;-79
2020/12/17 10:26:09;;;;;;;3.38;1.60;;;10.40;99.90;;;;;;4145213;28;20104;-79
2020/12/17 10:28:19;;;;;;;2.90;1.70;;;10.50;99.90;;;;;;4161836;28;20033;-79
2020/12/17 10:30:27;;;;;;;3.25;1.80;;;10.50;99.90;;;;;;4160729;28;20067;-79
2020/12/17 10:32:31;;;;;;;2.90;2.03;;;10.50;99.90;;;;;;4161557;28;20492;-79
2020/12/17 10:34:37;;;;;;;3.30;1.80;;;10.60;99.90;;;;;;4155621;28;20080;-79
2020/12/17 10:36:44;;;;;;;3.40;1.80;;;10.70;99.90;;;;;;4161335;28;20037;-79
2020/12/17 10:38:46;;;;;;;4.28;1.80;;;10.70;99.90;;;;;;4162912;28;20475;-79
2020/12/17 10:40:48;;;;;;;4.30;1.85;;;10.70;99.90;;;;;;4159808;28;20041;-79
2020/12/17 10:42:49;;;;;;;5.93;2.25;;;10.70;99.90;;;;;;4161100;28;20080;-79